Аэропорт: Нахичевань. Нахичевань

ICAO: UBBN

METAR:
2020-10-19 16:00:00
UBBN 191600Z 05006KT 9999 NSC 16/02 Q1017 R14R/CLRD// NOSIG RMK MT OP QFE688
METAR:
2020-10-19 11:00:00
TAF UBBN 191100Z 1912/2012 VRB04KT 9999 FEW050 TX25/1912Z TN07/2003Z TEMPO 1917/1923 02008KT